sensor_id;sensor_type;location;lat;lon;timestamp;temperature;humidity
75471;HTU21D;64051;46.320;48.028;2022-12-05T00:01:46;-10.10;60.15
75471;HTU21D;64051;46.320;48.028;2022-12-05T00:04:13;-10.10;60.12
75471;HTU21D;64051;46.320;48.028;2022-12-05T00:06:40;-10.11;60.82
75471;HTU21D;64051;46.320;48.028;2022-12-05T00:09:07;-10.11;60.04
75471;HTU21D;64051;46.320;48.028;2022-12-05T00:11:35;-10.10;60.12
75471;HTU21D;64051;46.320;48.028;2022-12-05T00:14:02;-10.10;59.97
75471;HTU21D;64051;46.320;48.028;2022-12-05T00:16:31;-10.11;60.02
75471;HTU21D;64051;46.320;48.028;2022-12-05T00:19:01;-10.13;59.92
75471;HTU21D;64051;46.320;48.028;2022-12-05T00:21:29;-10.14;60.19
75471;HTU21D;64051;46.320;48.028;2022-12-05T00:23:57;-10.14;60.05
75471;HTU21D;64051;46.320;48.028;2022-12-05T00:26:23;-10.16;60.43
75471;HTU21D;64051;46.320;48.028;2022-12-05T00:28:49;-10.16;60.22
75471;HTU21D;64051;46.320;48.028;2022-12-05T00:31:18;-10.19;60.18
75471;HTU21D;64051;46.320;48.028;2022-12-05T00:33:44;-10.21;60.17
75471;HTU21D;64051;46.320;48.028;2022-12-05T00:36:13;-10.21;60.37
75471;HTU21D;64051;46.320;48.028;2022-12-05T00:38:40;-10.27;60.22
75471;HTU21D;64051;46.320;48.028;2022-12-05T00:41:12;-10.28;60.02
75471;HTU21D;64051;46.320;48.028;2022-12-05T00:43:38;-10.31;60.28
75471;HTU21D;64051;46.320;48.028;2022-12-05T00:46:07;-10.33;60.75
75471;HTU21D;64051;46.320;48.028;2022-12-05T00:48:34;-10.33;60.52
75471;HTU21D;64051;46.320;48.028;2022-12-05T00:51:11;-10.33;60.12
75471;HTU21D;64051;46.320;48.028;2022-12-05T00:53:37;-10.35;60.25
75471;HTU21D;64051;46.320;48.028;2022-12-05T00:56:23;-10.40;60.09
75471;HTU21D;64051;46.320;48.028;2022-12-05T00:58:51;-10.42;60.09
75471;HTU21D;64051;46.320;48.028;2022-12-05T01:01:30;-10.45;60.86
75471;HTU21D;64051;46.320;48.028;2022-12-05T01:03:58;-10.48;60.44
75471;HTU21D;64051;46.320;48.028;2022-12-05T01:06:25;-10.49;60.54
75471;HTU21D;64051;46.320;48.028;2022-12-05T01:08:53;-10.49;60.53
75471;HTU21D;64051;46.320;48.028;2022-12-05T01:11:20;-10.49;60.62
75471;HTU21D;64051;46.320;48.028;2022-12-05T01:13:48;-10.48;61.13
75471;HTU21D;64051;46.320;48.028;2022-12-05T01:16:23;-10.47;61.16
75471;HTU21D;64051;46.320;48.028;2022-12-05T01:18:54;-10.47;61.09
75471;HTU21D;64051;46.320;48.028;2022-12-05T01:21:20;-10.48;61.09
75471;HTU21D;64051;46.320;48.028;2022-12-05T01:23:46;-10.47;60.84
75471;HTU21D;64051;46.320;48.028;2022-12-05T01:26:14;-10.45;61.32
75471;HTU21D;64051;46.320;48.028;2022-12-05T01:28:41;-10.46;61.62
75471;HTU21D;64051;46.320;48.028;2022-12-05T01:31:28;-10.44;61.34
75471;HTU21D;64051;46.320;48.028;2022-12-05T01:33:56;-10.45;61.31
75471;HTU21D;64051;46.320;48.028;2022-12-05T01:36:22;-10.43;61.31
75471;HTU21D;64051;46.320;48.028;2022-12-05T01:38:49;-10.42;61.04
75471;HTU21D;64051;46.320;48.028;2022-12-05T01:41:24;-10.42;61.02
75471;HTU21D;64051;46.320;48.028;2022-12-05T01:46:24;-10.43;60.72
75471;HTU21D;64051;46.320;48.028;2022-12-05T01:48:52;-10.42;60.76
75471;HTU21D;64051;46.320;48.028;2022-12-05T01:51:20;-10.42;61.17
75471;HTU21D;64051;46.320;48.028;2022-12-05T01:53:46;-10.40;61.09
75471;HTU21D;64051;46.320;48.028;2022-12-05T01:56:13;-10.41;61.25
75471;HTU21D;64051;46.320;48.028;2022-12-05T01:58:41;-10.41;61.08
75471;HTU21D;64051;46.320;48.028;2022-12-05T02:01:07;-10.42;60.93
75471;HTU21D;64051;46.320;48.028;2022-12-05T02:03:34;-10.41;60.88
75471;HTU21D;64051;46.320;48.028;2022-12-05T02:06:02;-10.42;60.81
75471;HTU21D;64051;46.320;48.028;2022-12-05T02:08:28;-10.42;60.77
75471;HTU21D;64051;46.320;48.028;2022-12-05T02:10:56;-10.41;60.95
75471;HTU21D;64051;46.320;48.028;2022-12-05T02:19:07;-10.42;61.12
75471;HTU21D;64051;46.320;48.028;2022-12-05T02:30:08;-10.45;61.09
75471;HTU21D;64051;46.320;48.028;2022-12-05T02:32:49;-10.46;61.17
75471;HTU21D;64051;46.320;48.028;2022-12-05T02:43:33;-10.52;61.33
75471;HTU21D;64051;46.320;48.028;2022-12-05T02:46:07;-10.59;60.92
75471;HTU21D;64051;46.320;48.028;2022-12-05T02:48:35;-10.62;60.90
75471;HTU21D;64051;46.320;48.028;2022-12-05T02:51:02;-10.66;60.92
75471;HTU21D;64051;46.320;48.028;2022-12-05T02:53:30;-10.66;61.03
75471;HTU21D;64051;46.320;48.028;2022-12-05T02:55:57;-10.67;61.25
75471;HTU21D;64051;46.320;48.028;2022-12-05T02:58:35;-10.67;61.30
75471;HTU21D;64051;46.320;48.028;2022-12-05T03:01:03;-10.71;61.15
75471;HTU21D;64051;46.320;48.028;2022-12-05T03:03:33;-10.73;60.94
75471;HTU21D;64051;46.320;48.028;2022-12-05T03:06:33;-10.76;61.22
75471;HTU21D;64051;46.320;48.028;2022-12-05T03:09:05;-10.78;61.31
75471;HTU21D;64051;46.320;48.028;2022-12-05T03:11:40;-10.84;61.15
75471;HTU21D;64051;46.320;48.028;2022-12-05T03:14:13;-10.89;61.38
75471;HTU21D;64051;46.320;48.028;2022-12-05T03:16:55;-10.94;61.12
75471;HTU21D;64051;46.320;48.028;2022-12-05T03:22:29;-11.02;61.05
75471;HTU21D;64051;46.320;48.028;2022-12-05T03:24:58;-11.05;61.14
75471;HTU21D;64051;46.320;48.028;2022-12-05T03:27:46;-11.09;61.07
75471;HTU21D;64051;46.320;48.028;2022-12-05T03:30:16;-11.12;61.18
75471;HTU21D;64051;46.320;48.028;2022-12-05T03:33:08;-11.12;61.12
75471;HTU21D;64051;46.320;48.028;2022-12-05T03:35:39;-11.15;60.96
75471;HTU21D;64051;46.320;48.028;2022-12-05T03:45:55;-11.20;60.95
75471;HTU21D;64051;46.320;48.028;2022-12-05T03:48:33;-11.19;60.80
75471;HTU21D;64051;46.320;48.028;2022-12-05T03:51:05;-11.20;60.76
75471;HTU21D;64051;46.320;48.028;2022-12-05T03:53:56;-11.22;60.73
75471;HTU21D;64051;46.320;48.028;2022-12-05T03:56:29;-11.23;60.75
75471;HTU21D;64051;46.320;48.028;2022-12-05T03:59:10;-11.23;60.78
75471;HTU21D;64051;46.320;48.028;2022-12-05T04:01:40;-11.23;60.81
75471;HTU21D;64051;46.320;48.028;2022-12-05T04:04:12;-11.22;60.86
75471;HTU21D;64051;46.320;48.028;2022-12-05T04:06:40;-11.21;60.80
75471;HTU21D;64051;46.320;48.028;2022-12-05T04:09:22;-11.20;60.85
75471;HTU21D;64051;46.320;48.028;2022-12-05T04:12:01;-11.20;60.85
75471;HTU21D;64051;46.320;48.028;2022-12-05T04:14:33;-11.18;61.00
75471;HTU21D;64051;46.320;48.028;2022-12-05T04:17:04;-11.18;61.05
75471;HTU21D;64051;46.320;48.028;2022-12-05T04:22:24;-11.19;60.92
75471;HTU21D;64051;46.320;48.028;2022-12-05T04:24:53;-11.19;61.00
75471;HTU21D;64051;46.320;48.028;2022-12-05T04:27:49;-11.19;60.98
75471;HTU21D;64051;46.320;48.028;2022-12-05T04:30:22;-11.19;60.90
75471;HTU21D;64051;46.320;48.028;2022-12-05T04:35:21;-11.21;60.87
75471;HTU21D;64051;46.320;48.028;2022-12-05T04:37:50;-11.21;60.99
75471;HTU21D;64051;46.320;48.028;2022-12-05T04:40:37;-11.20;60.99
75471;HTU21D;64051;46.320;48.028;2022-12-05T04:43:09;-11.18;60.96
75471;HTU21D;64051;46.320;48.028;2022-12-05T04:45:39;-11.15;60.94
75471;HTU21D;64051;46.320;48.028;2022-12-05T04:48:11;-11.14;60.89
75471;HTU21D;64051;46.320;48.028;2022-12-05T04:50:38;-11.12;60.93
75471;HTU21D;64051;46.320;48.028;2022-12-05T04:53:08;-11.12;60.99
75471;HTU21D;64051;46.320;48.028;2022-12-05T04:55:36;-11.09;60.97
75471;HTU21D;64051;46.320;48.028;2022-12-05T04:58:11;-11.04;60.95
75471;HTU21D;64051;46.320;48.028;2022-12-05T05:00:44;-11.02;61.08
75471;HTU21D;64051;46.320;48.028;2022-12-05T05:06:03;-10.93;60.99
75471;HTU21D;64051;46.320;48.028;2022-12-05T05:08:30;-10.88;61.08
75471;HTU21D;64051;46.320;48.028;2022-12-05T05:11:18;-10.81;61.15
75471;HTU21D;64051;46.320;48.028;2022-12-05T05:13:45;-10.74;61.05
75471;HTU21D;64051;46.320;48.028;2022-12-05T05:16:26;-10.65;61.02
75471;HTU21D;64051;46.320;48.028;2022-12-05T05:18:53;-10.58;61.05
75471;HTU21D;64051;46.320;48.028;2022-12-05T05:21:27;-10.49;61.02
75471;HTU21D;64051;46.320;48.028;2022-12-05T05:23:53;-10.41;61.09
75471;HTU21D;64051;46.320;48.028;2022-12-05T05:26:20;-10.31;61.14
75471;HTU21D;64051;46.320;48.028;2022-12-05T05:28:52;-10.21;60.80
75471;HTU21D;64051;46.320;48.028;2022-12-05T05:31:19;-10.11;60.99
75471;HTU21D;64051;46.320;48.028;2022-12-05T05:33:54;-10.01;61.02
75471;HTU21D;64051;46.320;48.028;2022-12-05T05:36:21;-9.90;60.97
75471;HTU21D;64051;46.320;48.028;2022-12-05T05:38:49;-9.78;60.82
75471;HTU21D;64051;46.320;48.028;2022-12-05T05:41:21;-9.68;60.76
75471;HTU21D;64051;46.320;48.028;2022-12-05T05:43:48;-9.59;60.85
75471;HTU21D;64051;46.320;48.028;2022-12-05T05:46:17;-9.47;60.83
75471;HTU21D;64051;46.320;48.028;2022-12-05T05:48:47;-9.37;60.75
75471;HTU21D;64051;46.320;48.028;2022-12-05T05:51:14;-9.27;60.77
75471;HTU21D;64051;46.320;48.028;2022-12-05T05:53:42;-9.18;60.72
75471;HTU21D;64051;46.320;48.028;2022-12-05T05:56:16;-9.08;60.55
75471;HTU21D;64051;46.320;48.028;2022-12-05T05:58:46;-8.98;60.13
75471;HTU21D;64051;46.320;48.028;2022-12-05T06:01:15;-8.88;60.39
75471;HTU21D;64051;46.320;48.028;2022-12-05T06:03:45;-8.80;60.12
75471;HTU21D;64051;46.320;48.028;2022-12-05T06:06:12;-8.71;60.31
75471;HTU21D;64051;46.320;48.028;2022-12-05T06:08:40;-8.65;60.26
75471;HTU21D;64051;46.320;48.028;2022-12-05T06:11:18;-8.56;60.24
75471;HTU21D;64051;46.320;48.028;2022-12-05T06:13:45;-8.46;60.33
75471;HTU21D;64051;46.320;48.028;2022-12-05T06:16:13;-8.38;60.09
75471;HTU21D;64051;46.320;48.028;2022-12-05T06:18:40;-8.28;59.91
75471;HTU21D;64051;46.320;48.028;2022-12-05T06:21:09;-8.18;60.38
75471;HTU21D;64051;46.320;48.028;2022-12-05T06:23:36;-8.06;60.21
75471;HTU21D;64051;46.320;48.028;2022-12-05T06:26:03;-7.96;60.30
75471;HTU21D;64051;46.320;48.028;2022-12-05T06:28:31;-7.86;60.27
75471;HTU21D;64051;46.320;48.028;2022-12-05T06:30:56;-7.76;60.35
75471;HTU21D;64051;46.320;48.028;2022-12-05T06:33:27;-7.64;60.22
75471;HTU21D;64051;46.320;48.028;2022-12-05T06:36:08;-7.53;59.80
75471;HTU21D;64051;46.320;48.028;2022-12-05T06:38:41;-7.48;59.74
75471;HTU21D;64051;46.320;48.028;2022-12-05T06:41:15;-7.42;59.67
75471;HTU21D;64051;46.320;48.028;2022-12-05T06:43:42;-7.33;59.92
75471;HTU21D;64051;46.320;48.028;2022-12-05T06:46:12;-7.23;59.67
75471;HTU21D;64051;46.320;48.028;2022-12-05T06:48:38;-7.13;59.81
75471;HTU21D;64051;46.320;48.028;2022-12-05T06:51:12;-7.03;58.49
75471;HTU21D;64051;46.320;48.028;2022-12-05T06:53:39;-6.95;59.31
75471;HTU21D;64051;46.320;48.028;2022-12-05T06:56:09;-6.89;59.39
75471;HTU21D;64051;46.320;48.028;2022-12-05T06:58:39;-6.82;59.03
75471;HTU21D;64051;46.320;48.028;2022-12-05T07:01:12;-6.75;59.38
75471;HTU21D;64051;46.320;48.028;2022-12-05T07:03:57;-6.68;58.64
75471;HTU21D;64051;46.320;48.028;2022-12-05T07:06:27;-6.61;59.58
75471;HTU21D;64051;46.320;48.028;2022-12-05T07:08:53;-6.50;59.49
75471;HTU21D;64051;46.320;48.028;2022-12-05T07:11:19;-6.35;59.58
75471;HTU21D;64051;46.320;48.028;2022-12-05T07:13:48;-6.22;58.41
75471;HTU21D;64051;46.320;48.028;2022-12-05T07:16:19;-6.12;57.80
75471;HTU21D;64051;46.320;48.028;2022-12-05T07:18:48;-6.03;59.05
75471;HTU21D;64051;46.320;48.028;2022-12-05T07:21:15;-5.99;58.61
75471;HTU21D;64051;46.320;48.028;2022-12-05T07:23:43;-5.92;58.91
75471;HTU21D;64051;46.320;48.028;2022-12-05T07:26:15;-5.83;59.11
75471;HTU21D;64051;46.320;48.028;2022-12-05T07:28:42;-5.77;58.46
75471;HTU21D;64051;46.320;48.028;2022-12-05T07:31:16;-5.71;58.50
75471;HTU21D;64051;46.320;48.028;2022-12-05T07:33:51;-5.65;57.98
75471;HTU21D;64051;46.320;48.028;2022-12-05T07:36:20;-5.59;57.79
75471;HTU21D;64051;46.320;48.028;2022-12-05T07:38:47;-5.56;57.40
75471;HTU21D;64051;46.320;48.028;2022-12-05T07:41:23;-5.50;57.67
75471;HTU21D;64051;46.320;48.028;2022-12-05T07:43:50;-5.43;57.77
75471;HTU21D;64051;46.320;48.028;2022-12-05T07:46:26;-5.37;57.57
75471;HTU21D;64051;46.320;48.028;2022-12-05T07:48:55;-5.27;57.31
75471;HTU21D;64051;46.320;48.028;2022-12-05T07:51:21;-5.20;57.70
75471;HTU21D;64051;46.320;48.028;2022-12-05T07:53:48;-5.12;57.58
75471;HTU21D;64051;46.320;48.028;2022-12-05T07:56:16;-5.04;57.26
75471;HTU21D;64051;46.320;48.028;2022-12-05T07:58:43;-4.99;56.80
75471;HTU21D;64051;46.320;48.028;2022-12-05T08:01:15;-4.95;57.00
75471;HTU21D;64051;46.320;48.028;2022-12-05T08:03:45;-4.87;57.06
75471;HTU21D;64051;46.320;48.028;2022-12-05T08:06:13;-4.76;57.00
75471;HTU21D;64051;46.320;48.028;2022-12-05T08:08:40;-4.71;56.75
75471;HTU21D;64051;46.320;48.028;2022-12-05T08:11:15;-4.60;56.53
75471;HTU21D;64051;46.320;48.028;2022-12-05T08:13:44;-4.49;57.05
75471;HTU21D;64051;46.320;48.028;2022-12-05T08:16:21;-4.39;56.13
75471;HTU21D;64051;46.320;48.028;2022-12-05T08:18:48;-4.36;56.04
75471;HTU21D;64051;46.320;48.028;2022-12-05T08:21:16;-4.27;55.49
75471;HTU21D;64051;46.320;48.028;2022-12-05T08:23:43;-4.21;55.50
75471;HTU21D;64051;46.320;48.028;2022-12-05T08:26:15;-4.13;56.14
75471;HTU21D;64051;46.320;48.028;2022-12-05T08:28:42;-4.07;55.49
75471;HTU21D;64051;46.320;48.028;2022-12-05T08:31:14;-4.02;55.49
75471;HTU21D;64051;46.320;48.028;2022-12-05T08:33:40;-3.98;53.86
75471;HTU21D;64051;46.320;48.028;2022-12-05T08:36:14;-3.93;55.63
75471;HTU21D;64051;46.320;48.028;2022-12-05T08:38:41;-3.86;55.62
75471;HTU21D;64051;46.320;48.028;2022-12-05T08:41:12;-3.82;55.77
75471;HTU21D;64051;46.320;48.028;2022-12-05T08:43:39;-3.78;54.93
75471;HTU21D;64051;46.320;48.028;2022-12-05T08:46:05;-3.75;55.73
75471;HTU21D;64051;46.320;48.028;2022-12-05T08:48:32;-3.68;55.88
75471;HTU21D;64051;46.320;48.028;2022-12-05T08:51:10;-3.58;55.52
75471;HTU21D;64051;46.320;48.028;2022-12-05T08:53:37;-3.50;55.71
75471;HTU21D;64051;46.320;48.028;2022-12-05T08:56:08;-3.43;54.60
75471;HTU21D;64051;46.320;48.028;2022-12-05T08:58:40;-3.38;54.17
75471;HTU21D;64051;46.320;48.028;2022-12-05T09:01:09;-3.35;54.54
75471;HTU21D;64051;46.320;48.028;2022-12-05T09:03:37;-3.32;52.05
75471;HTU21D;64051;46.320;48.028;2022-12-05T09:06:29;-3.26;52.59
75471;HTU21D;64051;46.320;48.028;2022-12-05T09:08:58;-3.21;54.30
75471;HTU21D;64051;46.320;48.028;2022-12-05T09:11:27;-3.12;54.61
75471;HTU21D;64051;46.320;48.028;2022-12-05T09:13:55;-3.09;52.46
75471;HTU21D;64051;46.320;48.028;2022-12-05T09:16:27;-3.06;53.59
75471;HTU21D;64051;46.320;48.028;2022-12-05T09:18:57;-3.03;53.77
75471;HTU21D;64051;46.320;48.028;2022-12-05T09:21:29;-2.98;52.75
75471;HTU21D;64051;46.320;48.028;2022-12-05T09:23:57;-2.93;53.57
75471;HTU21D;64051;46.320;48.028;2022-12-05T09:26:25;-2.84;53.15
75471;HTU21D;64051;46.320;48.028;2022-12-05T09:28:54;-2.78;53.28
75471;HTU21D;64051;46.320;48.028;2022-12-05T09:31:22;-2.75;53.15
75471;HTU21D;64051;46.320;48.028;2022-12-05T09:33:55;-2.73;53.02
75471;HTU21D;64051;46.320;48.028;2022-12-05T09:36:26;-2.71;53.03
75471;HTU21D;64051;46.320;48.028;2022-12-05T09:38:54;-2.67;52.36
75471;HTU21D;64051;46.320;48.028;2022-12-05T09:50:23;-2.62;50.20
75471;HTU21D;64051;46.320;48.028;2022-12-05T09:55:50;-2.62;48.98
75471;HTU21D;64051;46.320;48.028;2022-12-05T09:58:37;-2.60;49.66
75471;HTU21D;64051;46.320;48.028;2022-12-05T10:04:12;-2.49;50.52
75471;HTU21D;64051;46.320;48.028;2022-12-05T10:07:45;-2.43;50.21
75471;HTU21D;64051;46.320;48.028;2022-12-05T15:34:33;-5.00;49.62
75471;HTU21D;64051;46.320;48.028;2022-12-05T15:39:54;-5.04;49.73
75471;HTU21D;64051;46.320;48.028;2022-12-05T15:47:41;-5.11;49.91
75471;HTU21D;64051;46.320;48.028;2022-12-05T15:53:06;-5.16;49.95
75471;HTU21D;64051;46.320;48.028;2022-12-05T16:08:48;-5.31;50.33
75471;HTU21D;64051;46.320;48.028;2022-12-05T16:11:16;-5.32;50.33
75471;HTU21D;64051;46.320;48.028;2022-12-05T16:13:46;-5.34;50.37
75471;HTU21D;64051;46.320;48.028;2022-12-05T16:16:40;-5.33;50.47
75471;HTU21D;64051;46.320;48.028;2022-12-05T16:19:20;-5.35;50.56
75471;HTU21D;64051;46.320;48.028;2022-12-05T16:24:54;-5.40;50.68
75471;HTU21D;64051;46.320;48.028;2022-12-05T16:27:26;-5.40;50.76
75471;HTU21D;64051;46.320;48.028;2022-12-05T16:30:19;-5.42;50.99
75471;HTU21D;64051;46.320;48.028;2022-12-05T16:33:15;-5.42;50.83
75471;HTU21D;64051;46.320;48.028;2022-12-05T16:35:43;-5.45;50.85
75471;HTU21D;64051;46.320;48.028;2022-12-05T16:38:24;-5.47;50.88
75471;HTU21D;64051;46.320;48.028;2022-12-05T16:40:57;-5.46;50.98
75471;HTU21D;64051;46.320;48.028;2022-12-05T16:48:40;-5.53;51.08
75471;HTU21D;64051;46.320;48.028;2022-12-05T16:53:41;-5.58;51.11
75471;HTU21D;64051;46.320;48.028;2022-12-05T16:56:14;-5.60;51.21
75471;HTU21D;64051;46.320;48.028;2022-12-05T16:58:52;-5.63;51.21
75471;HTU21D;64051;46.320;48.028;2022-12-05T17:01:24;-5.63;51.29
75471;HTU21D;64051;46.320;48.028;2022-12-05T17:03:51;-5.65;51.26
75471;HTU21D;64051;46.320;48.028;2022-12-05T17:06:24;-5.68;51.21
75471;HTU21D;64051;46.320;48.028;2022-12-05T17:08:53;-5.74;51.33
75471;HTU21D;64051;46.320;48.028;2022-12-05T17:11:23;-5.78;51.38
75471;HTU21D;64051;46.320;48.028;2022-12-05T17:13:51;-5.81;51.47
75471;HTU21D;64051;46.320;48.028;2022-12-05T17:16:18;-5.83;51.49
75471;HTU21D;64051;46.320;48.028;2022-12-05T17:18:57;-5.85;51.52
75471;HTU21D;64051;46.320;48.028;2022-12-05T17:21:28;-5.87;51.56
75471;HTU21D;64051;46.320;48.028;2022-12-05T17:23:56;-5.89;51.53
75471;HTU21D;64051;46.320;48.028;2022-12-05T17:26:25;-5.90;51.62
75471;HTU21D;64051;46.320;48.028;2022-12-05T17:29:00;-5.91;51.71
75471;HTU21D;64051;46.320;48.028;2022-12-05T17:31:34;-5.92;51.72
75471;HTU21D;64051;46.320;48.028;2022-12-05T17:34:12;-5.93;51.86
75471;HTU21D;64051;46.320;48.028;2022-12-05T17:36:45;-5.94;51.88
75471;HTU21D;64051;46.320;48.028;2022-12-05T17:39:20;-5.94;51.91
75471;HTU21D;64051;46.320;48.028;2022-12-05T17:41:46;-5.97;51.98
75471;HTU21D;64051;46.320;48.028;2022-12-05T17:44:19;-5.97;52.07
75471;HTU21D;64051;46.320;48.028;2022-12-05T17:46:51;-6.00;52.11
75471;HTU21D;64051;46.320;48.028;2022-12-05T17:49:20;-6.02;52.16
75471;HTU21D;64051;46.320;48.028;2022-12-05T17:51:52;-6.00;52.16
75471;HTU21D;64051;46.320;48.028;2022-12-05T17:54:22;-6.03;52.25
75471;HTU21D;64051;46.320;48.028;2022-12-05T17:56:56;-6.03;52.30
75471;HTU21D;64051;46.320;48.028;2022-12-05T17:59:23;-6.07;52.36
75471;HTU21D;64051;46.320;48.028;2022-12-05T18:01:55;-6.12;52.40
75471;HTU21D;64051;46.320;48.028;2022-12-05T18:04:21;-6.13;52.40
75471;HTU21D;64051;46.320;48.028;2022-12-05T18:06:50;-6.16;52.54
75471;HTU21D;64051;46.320;48.028;2022-12-05T18:09:19;-6.18;52.56
75471;HTU21D;64051;46.320;48.028;2022-12-05T18:11:48;-6.20;52.70
75471;HTU21D;64051;46.320;48.028;2022-12-05T18:14:14;-6.18;52.72
75471;HTU21D;64051;46.320;48.028;2022-12-05T18:16:43;-6.22;52.63
75471;HTU21D;64051;46.320;48.028;2022-12-05T18:19:13;-6.28;52.62
75471;HTU21D;64051;46.320;48.028;2022-12-05T18:21:42;-6.29;52.69
75471;HTU21D;64051;46.320;48.028;2022-12-05T18:24:14;-6.32;52.70
75471;HTU21D;64051;46.320;48.028;2022-12-05T18:26:48;-6.34;52.97
75471;HTU21D;64051;46.320;48.028;2022-12-05T18:29:15;-6.35;52.87
75471;HTU21D;64051;46.320;48.028;2022-12-05T18:31:44;-6.37;53.03
75471;HTU21D;64051;46.320;48.028;2022-12-05T18:34:10;-6.35;52.90
75471;HTU21D;64051;46.320;48.028;2022-12-05T18:36:54;-6.36;52.88
75471;HTU21D;64051;46.320;48.028;2022-12-05T18:39:20;-6.41;52.79
75471;HTU21D;64051;46.320;48.028;2022-12-05T18:41:49;-6.41;52.88
75471;HTU21D;64051;46.320;48.028;2022-12-05T18:44:15;-6.43;53.00
75471;HTU21D;64051;46.320;48.028;2022-12-05T18:46:44;-6.44;53.01
75471;HTU21D;64051;46.320;48.028;2022-12-05T18:49:11;-6.43;53.22
75471;HTU21D;64051;46.320;48.028;2022-12-05T18:51:38;-6.44;53.21
75471;HTU21D;64051;46.320;48.028;2022-12-05T18:54:04;-6.44;53.16
75471;HTU21D;64051;46.320;48.028;2022-12-05T18:56:35;-6.47;53.13
75471;HTU21D;64051;46.320;48.028;2022-12-05T18:59:03;-6.47;53.34
75471;HTU21D;64051;46.320;48.028;2022-12-05T19:01:32;-6.47;53.32
75471;HTU21D;64051;46.320;48.028;2022-12-05T19:04:02;-6.46;53.47
75471;HTU21D;64051;46.320;48.028;2022-12-05T19:06:30;-6.48;53.48
75471;HTU21D;64051;46.320;48.028;2022-12-05T19:09:03;-6.50;53.42
75471;HTU21D;64051;46.320;48.028;2022-12-05T19:11:30;-6.52;53.41
75471;HTU21D;64051;46.320;48.028;2022-12-05T19:14:01;-6.53;53.59
75471;HTU21D;64051;46.320;48.028;2022-12-05T19:16:28;-6.55;53.49
75471;HTU21D;64051;46.320;48.028;2022-12-05T19:18:59;-6.57;53.44
75471;HTU21D;64051;46.320;48.028;2022-12-05T19:21:30;-6.59;53.53
75471;HTU21D;64051;46.320;48.028;2022-12-05T19:23:57;-6.60;53.64
75471;HTU21D;64051;46.320;48.028;2022-12-05T19:26:23;-6.62;53.80
75471;HTU21D;64051;46.320;48.028;2022-12-05T19:28:50;-6.65;53.65
75471;HTU21D;64051;46.320;48.028;2022-12-05T19:31:21;-6.64;54.14
75471;HTU21D;64051;46.320;48.028;2022-12-05T19:33:50;-6.66;53.99
75471;HTU21D;64051;46.320;48.028;2022-12-05T19:36:23;-6.68;54.12
75471;HTU21D;64051;46.320;48.028;2022-12-05T19:38:50;-6.71;54.08
75471;HTU21D;64051;46.320;48.028;2022-12-05T19:41:20;-6.72;54.06
75471;HTU21D;64051;46.320;48.028;2022-12-05T19:43:46;-6.75;53.96
75471;HTU21D;64051;46.320;48.028;2022-12-05T19:46:15;-6.78;53.97
75471;HTU21D;64051;46.320;48.028;2022-12-05T19:48:41;-6.85;54.05
75471;HTU21D;64051;46.320;48.028;2022-12-05T19:51:14;-6.93;53.89
75471;HTU21D;64051;46.320;48.028;2022-12-05T19:53:41;-7.04;53.83
75471;HTU21D;64051;46.320;48.028;2022-12-05T19:58:40;-7.29;54.03
75471;HTU21D;64051;46.320;48.028;2022-12-05T20:01:15;-7.39;53.86
75471;HTU21D;64051;46.320;48.028;2022-12-05T20:03:42;-7.50;53.97
75471;HTU21D;64051;46.320;48.028;2022-12-05T20:06:13;-7.61;54.04
75471;HTU21D;64051;46.320;48.028;2022-12-05T20:08:39;-7.72;54.01
75471;HTU21D;64051;46.320;48.028;2022-12-05T20:11:11;-7.82;54.12
75471;HTU21D;64051;46.320;48.028;2022-12-05T20:13:39;-7.94;54.33
75471;HTU21D;64051;46.320;48.028;2022-12-05T20:16:09;-8.01;54.65
75471;HTU21D;64051;46.320;48.028;2022-12-05T20:18:36;-8.10;54.71
75471;HTU21D;64051;46.320;48.028;2022-12-05T20:21:09;-8.15;54.82
75471;HTU21D;64051;46.320;48.028;2022-12-05T20:23:35;-8.24;54.57
75471;HTU21D;64051;46.320;48.028;2022-12-05T20:26:10;-8.30;54.84
75471;HTU21D;64051;46.320;48.028;2022-12-05T20:28:37;-8.38;54.48
75471;HTU21D;64051;46.320;48.028;2022-12-05T20:31:23;-8.44;54.60
75471;HTU21D;64051;46.320;48.028;2022-12-05T20:33:51;-8.51;54.70
75471;HTU21D;64051;46.320;48.028;2022-12-05T20:36:19;-8.57;54.69
75471;HTU21D;64051;46.320;48.028;2022-12-05T20:38:46;-8.64;55.04
75471;HTU21D;64051;46.320;48.028;2022-12-05T20:41:17;-8.67;54.59
75471;HTU21D;64051;46.320;48.028;2022-12-05T20:43:44;-8.71;54.85
75471;HTU21D;64051;46.320;48.028;2022-12-05T20:46:17;-8.78;54.70
75471;HTU21D;64051;46.320;48.028;2022-12-05T20:48:44;-8.82;55.13
75471;HTU21D;64051;46.320;48.028;2022-12-05T20:51:16;-8.88;54.84
75471;HTU21D;64051;46.320;48.028;2022-12-05T20:53:43;-8.93;54.65
75471;HTU21D;64051;46.320;48.028;2022-12-05T20:56:23;-8.98;54.82
75471;HTU21D;64051;46.320;48.028;2022-12-05T20:58:58;-9.04;54.64
75471;HTU21D;64051;46.320;48.028;2022-12-05T21:01:26;-9.09;54.90
75471;HTU21D;64051;46.320;48.028;2022-12-05T21:03:53;-9.13;54.85
75471;HTU21D;64051;46.320;48.028;2022-12-05T21:06:29;-9.16;54.75
75471;HTU21D;64051;46.320;48.028;2022-12-05T21:08:57;-9.19;54.77
75471;HTU21D;64051;46.320;48.028;2022-12-05T21:11:25;-9.20;54.86
75471;HTU21D;64051;46.320;48.028;2022-12-05T21:13:54;-9.23;55.42
75471;HTU21D;64051;46.320;48.028;2022-12-05T21:16:21;-9.25;55.30
75471;HTU21D;64051;46.320;48.028;2022-12-05T21:18:50;-9.27;55.21
75471;HTU21D;64051;46.320;48.028;2022-12-05T21:21:19;-9.28;56.34
75471;HTU21D;64051;46.320;48.028;2022-12-05T21:23:50;-9.31;56.06
75471;HTU21D;64051;46.320;48.028;2022-12-05T21:26:17;-9.32;56.16
75471;HTU21D;64051;46.320;48.028;2022-12-05T21:28:44;-9.33;55.33
75471;HTU21D;64051;46.320;48.028;2022-12-05T21:31:14;-9.38;55.43
75471;HTU21D;64051;46.320;48.028;2022-12-05T21:33:41;-9.38;55.23
75471;HTU21D;64051;46.320;48.028;2022-12-05T21:36:08;-9.40;55.10
75471;HTU21D;64051;46.320;48.028;2022-12-05T21:38:34;-9.42;55.88
75471;HTU21D;64051;46.320;48.028;2022-12-05T21:41:02;-9.45;55.14
75471;HTU21D;64051;46.320;48.028;2022-12-05T21:43:32;-9.45;55.04
75471;HTU21D;64051;46.320;48.028;2022-12-05T21:45:59;-9.47;54.97
75471;HTU21D;64051;46.320;48.028;2022-12-05T21:48:25;-9.49;55.01
75471;HTU21D;64051;46.320;48.028;2022-12-05T21:50:51;-9.52;55.29
75471;HTU21D;64051;46.320;48.028;2022-12-05T21:53:18;-9.52;55.00
75471;HTU21D;64051;46.320;48.028;2022-12-05T21:55:44;-9.49;55.05
75471;HTU21D;64051;46.320;48.028;2022-12-05T21:58:11;-9.48;55.76
75471;HTU21D;64051;46.320;48.028;2022-12-05T22:00:37;-9.46;55.06
75471;HTU21D;64051;46.320;48.028;2022-12-05T22:03:04;-9.44;55.21
75471;HTU21D;64051;46.320;48.028;2022-12-05T22:05:30;-9.42;55.05
75471;HTU21D;64051;46.320;48.028;2022-12-05T22:07:57;-9.42;55.72
75471;HTU21D;64051;46.320;48.028;2022-12-05T22:10:23;-9.42;55.05
75471;HTU21D;64051;46.320;48.028;2022-12-05T22:12:49;-9.41;55.04
75471;HTU21D;64051;46.320;48.028;2022-12-05T22:15:15;-9.41;55.16
75471;HTU21D;64051;46.320;48.028;2022-12-05T22:17:41;-9.43;54.92
75471;HTU21D;64051;46.320;48.028;2022-12-05T22:20:07;-9.43;55.08